»·PEaware :: N7727P KRDD-KFOT

N7727P :: KRDD-KFOT

FLIGHT INFORMATION

Flight Status: Arrived
Operator: Privately registered:
United States
More flights under this callsign
Pilot: Kyle A. (14988)
Aircraft: PIPER PA-24 COMMANCHE
(PA24)
More flights by this aircraft type
Origin: KRDD Redding Mun
United States
Destination: KFOT Rohnerville
United States
More flights between these airports :: More routes between these airports
Route: HOMAN2 RBL V195 DINSE
File this flight plan on PilotEdge
Remarks:
Altitude:
(Current/Filed)
12,000ft
Speed:
(Current/Filed)
150kts
Departed: 14-Mar-18 08:23 AM
Arrived: 14-Mar-18 09:13 AM
Distance/Time
Traveled:
84nm/0:50
Distance/Time
To Go:
Arrived

Flight Plot

Page will automatically refresh every two minutes.

Flight plan parsing failed; only flown route is shown


Map Options




Map Legend


Flown Route
Filed Route
Departure Airport
Arrival Airport
Navaid (VOR, NDB)
Fix

Horizontal Profiles

Position Reports

Time Latitude Longitude Heading Altitude Ground
Speed
14-Mar-18 08:01 40.509960 -122.297631 359 505ft 0kts
14-Mar-18 08:02 40.509610 -122.298322 185 505ft 0kts
14-Mar-18 08:03 40.509606 -122.298322 185 505ft 0kts
14-Mar-18 08:04 40.509603 -122.298323 185 505ft 0kts
14-Mar-18 08:05 40.509599 -122.298323 185 505ft 0kts
14-Mar-18 08:06 40.509596 -122.298324 185 505ft 0kts
14-Mar-18 08:07 40.509593 -122.298324 185 505ft 0kts
14-Mar-18 08:08 40.509589 -122.298324 185 505ft 0kts
14-Mar-18 08:09 40.509586 -122.298325 185 505ft 0kts
14-Mar-18 08:10 40.509583 -122.298325 185 505ft 0kts
14-Mar-18 08:11 40.509581 -122.298326 185 505ft 0kts
14-Mar-18 08:12 40.509578 -122.298326 185 505ft 0kts
14-Mar-18 08:13 40.509575 -122.298326 185 505ft 0kts
14-Mar-18 08:14 40.509573 -122.298327 185 505ft 0kts
14-Mar-18 08:15 40.509570 -122.298327 185 505ft 0kts
14-Mar-18 08:16 40.509343 -122.298331 180 505ft 7kts
14-Mar-18 08:17 40.508558 -122.296968 64 505ft 10kts
14-Mar-18 08:18 40.505486 -122.296332 180 505ft 14kts
14-Mar-18 08:19 40.502176 -122.296254 137 505ft 8kts
14-Mar-18 08:20 40.501906 -122.295907 132 505ft 0kts
14-Mar-18 08:21 40.501904 -122.295905 132 505ft 0kts
14-Mar-18 08:22 40.506439 -122.294926 358 523ft 83kts
14-Mar-18 08:23 40.533155 -122.293281 28 1746ft 103kts
14-Mar-18 08:24 40.525572 -122.269095 170 3099ft 92kts
14-Mar-18 08:25 40.499753 -122.263318 169 4261ft 97kts
14-Mar-18 08:26 40.475949 -122.246216 129 5430ft 101kts
14-Mar-18 08:27 40.453185 -122.227871 214 6317ft 112kts
14-Mar-18 08:28 40.439891 -122.262345 239 7493ft 105kts
14-Mar-18 08:29 40.426674 -122.299531 243 8343ft 115kts
14-Mar-18 08:30 40.412373 -122.338027 240 9097ft 124kts
14-Mar-18 08:31 40.397423 -122.378938 242 9802ft 124kts
14-Mar-18 08:32 40.382358 -122.419365 242 10474ft 123kts
14-Mar-18 08:33 40.367208 -122.460318 242 11069ft 125kts
14-Mar-18 08:34 40.352134 -122.501206 242 11638ft 124kts
14-Mar-18 08:35 40.336856 -122.542386 242 12010ft 135kts
14-Mar-18 08:36 40.319749 -122.588626 242 12012ft 142kts
14-Mar-18 08:37 40.302263 -122.635696 242 12004ft 144kts
14-Mar-18 08:38 40.284862 -122.682493 242 12002ft 142kts
14-Mar-18 08:39 40.267477 -122.729127 242 11999ft 142kts
14-Mar-18 08:40 40.259113 -122.777283 290 12000ft 146kts
14-Mar-18 08:41 40.272918 -122.827352 285 11989ft 146kts
14-Mar-18 08:42 40.287272 -122.877256 287 11994ft 147kts
14-Mar-18 08:43 40.301787 -122.927164 287 11997ft 146kts
14-Mar-18 08:44 40.316328 -122.977191 287 11995ft 146kts
14-Mar-18 08:45 40.330738 -123.027012 287 11994ft 146kts
14-Mar-18 08:46 40.345118 -123.076800 287 11994ft 146kts
14-Mar-18 08:47 40.359439 -123.126748 287 11994ft 146kts
14-Mar-18 08:48 40.373761 -123.176457 287 11994ft 145kts
14-Mar-18 08:49 40.388016 -123.226341 287 11994ft 145kts
14-Mar-18 08:50 40.402197 -123.276125 288 12001ft 145kts
14-Mar-18 08:51 40.416511 -123.325902 287 12007ft 146kts
14-Mar-18 08:52 40.430752 -123.375901 287 12010ft 145kts
14-Mar-18 08:53 40.444950 -123.425733 287 12013ft 145kts
14-Mar-18 08:54 40.459216 -123.475582 287 12006ft 146kts
14-Mar-18 08:55 40.473316 -123.525670 287 12010ft 145kts
14-Mar-18 08:56 40.487054 -123.574320 287 12007ft 139kts
14-Mar-18 08:57 40.500861 -123.623481 288 11541ft 147kts
14-Mar-18 08:58 40.507743 -123.673764 251 10558ft 142kts
14-Mar-18 08:59 40.495648 -123.722482 254 8644ft 139kts
14-Mar-18 09:00 40.485876 -123.762164 253 7148ft 138kts
14-Mar-18 09:01 40.473781 -123.810594 253 5265ft 141kts
14-Mar-18 09:02 40.461429 -123.858929 252 4165ft 139kts
14-Mar-18 09:03 40.468457 -123.896698 296 3731ft 131kts
14-Mar-18 09:04 40.484165 -123.938144 297 3705ft 113kts
14-Mar-18 09:05 40.498719 -123.976396 297 3020ft 111kts
14-Mar-18 09:06 40.510597 -124.008311 296 2625ft 88kts
14-Mar-18 09:07 40.519661 -124.036783 291 2091ft 81kts
14-Mar-18 09:08 40.527921 -124.062816 290 1554ft 71kts
14-Mar-18 09:09 40.535318 -124.086110 289 1195ft 66kts
14-Mar-18 09:10 40.542671 -124.109419 290 822ft 71kts
14-Mar-18 09:11 40.552393 -124.129990 303 359ft 50kts
14-Mar-18 09:12 40.554626 -124.131935 315 358ft 4kts
14-Mar-18 09:13 40.554772 -124.131825 126 358ft 0kts
14-Mar-18 09:14 40.554771 -124.131824 126 358ft 0kts
14-Mar-18 09:15 40.554771 -124.131824 126 358ft 0kts
14-Mar-18 09:16 40.554771 -124.131824 126 358ft 0kts
14-Mar-18 09:17 40.554771 -124.131824 126 358ft 0kts
14-Mar-18 09:18 40.554771 -124.131824 126 358ft 0kts
14-Mar-18 09:19 40.554771 -124.131824 126 358ft 0kts
14-Mar-18 09:20 40.554771 -124.131824 126 358ft 0kts
14-Mar-18 09:21 40.554771 -124.131824 126 358ft 0kts
14-Mar-18 09:22 40.554771 -124.131824 126 358ft 0kts
14-Mar-18 09:23 40.554771 -124.131824 126 358ft 0kts
14-Mar-18 09:24 40.554771 -124.131824 126 358ft 0kts
14-Mar-18 09:25 40.554771 -124.131824 126 358ft 0kts
14-Mar-18 09:26 40.554771 -124.131824 126 358ft 0kts

Navigation Log

Ident Type
Flight plan parsing failed, navigation log unavailable